メインページ
METAR-TAF:

METAR-TAF

空港 :

メヘラーバード国際空港

テヘラン, イラン

緯度: 35-41N, 経度: 051-21E, 海抜: 1204m

現時点の気象観測

当レポートは17分前の11:00(UTC)に作成
北東の風 8kt
気温 9°C
湿度 71%
気圧 1021 hPa
視程10km以上
高度3000ftの雲は散在している
高度3500ftの雲はほとんどない, 積乱雲.
高度10000ftの曇り

METAR: OIII 141100Z 04008KT 9999 SCT030 FEW035CB OVC100 09/04 Q1021 A3015

時間: 14:47 (11:17 UTC)

予報

当レポートは5時間47分前の05:30(UTC)に作成
予報は14日の 06時(UTC)から 15日の 12時(UTC)まで有効
南/南東の風 8kt
視程: 6000m
高度3000ftの雲は散在している
高度9000ftの千切れ雲あり
14日の 06時(UTC)から 14日の 13時(UTC)まで一時的に
視程: 4000m
高度2000ftの雲はほとんどない
高度3500ftの雲は散在している
高度9000ftの千切れ雲あり
14日の 15時(UTC)から 14日の 17時(UTC)まで徐々に
高度3000ftの雲はほとんどない, 積乱雲.
高度3500ftの雲は散在している
高度9000ftの曇り
14日の 18時(UTC)から 15日の 03時(UTC)まで一時的に
視程: 4000m
高度3000ftの雲は散在している, 積乱雲.
高度3500ftの雲は散在している
高度8000ftの曇り
雨, 靄
14日の 06時(UTC)から 14日の 08時(UTC)まで徐々に
視程: 7000m
高度2500ftの雲は散在している
高度8000ftの千切れ雲あり

TAF: OIII 140530Z 1406/1512 15004MPS 6000 SCT030 BKN090 TEMPO 1406/1413 4000 RA FEW020 SCT035 BKN090 BECMG 1415/1417 FEW030CB SCT035 OVC090 TEMPO 1418/1503 4000 RA BR SCT030CB SCT035 OVC080 BECMG 1406/1408 7000 SCT025 BKN080

4,000以上の空港の気象観測と天気予報(METAR報とTAF報)

利用可能な観測所は地図上に黄色い丸と赤い丸で示す。

丸の上にカーソルを重ねると観測所名を参照できる。

次にクリックすると気象観測と天気予報を参照できる。

マップの切り替え:黒色「×」印の緑ボタンをクリックして拡大、「-」印の緑ボタンをクリックして縮小、緑色の三角印をクリックして隣りの地図に切り替え


METAR-TAF: